createdAt,value
2019-06-10T00:00:50.829Z,29.40
2019-06-10T00:03:31.770Z,29.40
2019-06-10T00:06:14.883Z,29.30
2019-06-10T00:08:58.105Z,29.40
2019-06-10T00:11:41.132Z,29.40
2019-06-10T00:14:23.363Z,29.40
2019-06-10T00:17:06.351Z,29.40
2019-06-10T00:19:48.189Z,29.50
2019-06-10T00:22:31.548Z,29.70
2019-06-10T00:25:16.113Z,29.80
2019-06-10T00:28:03.979Z,29.80
2019-06-10T00:30:45.830Z,30.10
2019-06-10T00:33:28.217Z,30.10
2019-06-10T00:36:13.394Z,30.00
2019-06-10T00:38:55.978Z,29.90
2019-06-10T00:47:46.361Z,30.10
2019-06-10T00:50:41.451Z,30.00
2019-06-10T00:53:27.236Z,30.00
2019-06-10T00:56:09.625Z,30.10
2019-06-10T01:01:54.148Z,30.10
2019-06-10T01:04:35.406Z,30.00
2019-06-10T01:10:14.653Z,29.90
2019-06-10T01:12:58.091Z,29.90
2019-06-10T01:15:41.806Z,29.90
2019-06-10T01:18:34.643Z,29.80
2019-06-10T01:21:05.959Z,29.80
2019-06-10T01:23:51.034Z,29.80
2019-06-10T01:26:35.173Z,29.80
2019-06-10T01:29:18.218Z,29.80
2019-06-10T01:32:02.246Z,29.80
2019-06-10T01:37:48.138Z,29.80
2019-06-10T01:40:27.964Z,29.90
2019-06-10T01:43:13.228Z,29.90
2019-06-10T01:45:53.869Z,29.90
2019-06-10T01:48:47.936Z,30.00
2019-06-10T01:51:27.138Z,30.00
2019-06-10T01:57:12.256Z,30.00
2019-06-10T01:59:55.936Z,30.00
2019-06-10T02:05:41.958Z,30.00
2019-06-10T02:08:22.500Z,30.00
2019-06-10T02:11:06.456Z,29.90
2019-06-10T02:13:51.569Z,30.20
2019-06-10T02:16:32.063Z,30.20
2019-06-10T02:19:14.247Z,30.30
2019-06-10T02:21:56.087Z,30.20
2019-06-10T02:24:38.258Z,30.30
2019-06-10T02:27:23.260Z,30.40
2019-06-10T02:30:14.802Z,30.40
2019-06-10T02:32:52.117Z,30.40
2019-06-10T02:35:44.091Z,30.40
2019-06-10T02:38:19.838Z,30.50
2019-06-10T02:47:03.340Z,30.70
2019-06-10T02:49:56.871Z,30.80
2019-06-10T02:52:32.578Z,30.70
2019-06-10T02:55:13.957Z,30.80
2019-06-10T02:57:59.021Z,31.00
2019-06-10T03:00:47.397Z,31.00
2019-06-10T03:03:35.395Z,30.90
2019-06-10T03:09:16.410Z,30.90
2019-06-10T03:11:59.492Z,30.90
2019-06-10T03:14:42.148Z,31.00
2019-06-10T03:17:32.295Z,31.00
2019-06-10T03:20:12.539Z,31.00
2019-06-10T03:22:57.745Z,31.10
2019-06-10T03:25:38.709Z,31.10
2019-06-10T03:28:23.632Z,31.20
2019-06-10T03:31:06.429Z,31.20
2019-06-10T03:33:53.907Z,31.20
2019-06-10T03:36:37.170Z,31.20
2019-06-10T03:39:18.555Z,31.30
2019-06-10T03:42:02.253Z,31.30
2019-06-10T03:44:45.082Z,31.30
2019-06-10T03:50:35.922Z,31.30
2019-06-10T03:53:15.603Z,31.30
2019-06-10T03:55:56.203Z,31.40
2019-06-10T03:58:39.357Z,31.30
2019-06-10T04:01:28.634Z,31.30
2019-06-10T04:04:08.620Z,31.30
2019-06-10T04:06:53.205Z,31.30
2019-06-10T04:09:33.648Z,31.30
2019-06-10T04:15:13.121Z,31.20
2019-06-10T04:20:54.906Z,31.40
2019-06-10T04:23:35.478Z,31.40
2019-06-10T04:26:19.569Z,31.40
2019-06-10T04:29:03.098Z,31.30
2019-06-10T04:31:42.726Z,31.40
2019-06-10T04:37:27.411Z,31.30
2019-06-10T04:40:13.317Z,31.30
2019-06-10T04:43:07.385Z,31.40
2019-06-10T04:45:53.607Z,31.40
2019-06-10T04:48:36.357Z,31.50
2019-06-10T04:51:22.924Z,31.50
2019-06-10T04:54:03.643Z,31.50
2019-06-10T04:56:46.357Z,31.50
2019-06-10T05:05:32.714Z,31.40
2019-06-10T05:08:13.271Z,31.40
2019-06-10T05:10:53.138Z,31.40
2019-06-10T05:13:48.672Z,31.40
2019-06-10T05:16:32.212Z,31.30
2019-06-10T05:19:12.907Z,31.30
2019-06-10T05:21:53.890Z,31.30
2019-06-10T05:24:37.778Z,31.30
2019-06-10T05:27:25.351Z,31.30
2019-06-10T05:30:08.624Z,31.30
2019-06-10T05:32:55.252Z,31.40
2019-06-10T05:35:37.289Z,31.40
2019-06-10T05:38:28.577Z,31.40
2019-06-10T05:41:13.400Z,31.50
2019-06-10T05:43:53.987Z,31.60
2019-06-10T05:46:35.139Z,31.60
2019-06-10T05:49:25.966Z,31.60
2019-06-10T05:52:23.409Z,31.60
2019-06-10T05:55:04.605Z,31.50
2019-06-10T05:57:46.924Z,31.40
2019-06-10T06:00:33.450Z,31.40
2019-06-10T06:03:15.846Z,31.40
2019-06-10T06:05:56.528Z,31.40
2019-06-10T06:11:39.872Z,31.40
2019-06-10T06:17:23.612Z,31.50
2019-06-10T06:26:06.912Z,31.70
2019-06-10T06:29:03.056Z,31.70
2019-06-10T06:31:47.595Z,31.70
2019-06-10T06:34:28.654Z,31.70
2019-06-10T06:37:12.751Z,31.70
2019-06-10T06:43:03.259Z,31.70
2019-06-10T06:45:53.000Z,31.60
2019-06-10T06:48:35.686Z,31.60
2019-06-10T06:51:14.452Z,31.60
2019-06-10T06:53:56.510Z,31.70
2019-06-10T06:56:37.396Z,31.70
2019-06-10T06:59:27.442Z,31.70
2019-06-10T07:02:12.349Z,31.60
2019-06-10T07:04:57.180Z,31.60
2019-06-10T07:07:38.643Z,31.60
2019-06-10T07:10:23.309Z,31.60
2019-06-10T07:19:14.377Z,31.60
2019-06-10T07:22:08.600Z,31.60
2019-06-10T07:24:47.898Z,31.60
2019-06-10T07:30:27.577Z,31.50
2019-06-10T07:33:12.103Z,31.50
2019-06-10T07:35:52.519Z,31.60
2019-06-10T07:38:39.312Z,31.60
2019-06-10T07:41:22.973Z,31.60
2019-06-10T07:44:06.016Z,31.60
2019-06-10T07:46:48.040Z,31.50
2019-06-10T07:52:35.930Z,31.50
2019-06-10T07:55:17.959Z,31.40
2019-06-10T07:58:02.525Z,31.40
2019-06-10T08:00:46.516Z,31.40
2019-06-10T08:03:23.989Z,31.40
2019-06-10T08:09:06.499Z,31.40
2019-06-10T08:12:32.415Z,31.30
2019-06-10T08:15:13.747Z,31.30
2019-06-10T08:17:58.513Z,31.30
2019-06-10T08:20:53.209Z,31.30
2019-06-10T08:23:38.586Z,31.30
2019-06-10T08:26:32.462Z,31.30
2019-06-10T08:29:17.148Z,31.30
2019-06-10T08:32:05.128Z,31.40
2019-06-10T08:34:45.043Z,31.30
2019-06-10T08:37:27.341Z,31.30
2019-06-10T08:40:06.464Z,31.30
2019-06-10T08:42:48.913Z,31.40
2019-06-10T08:45:38.982Z,31.40
2019-06-10T08:48:36.979Z,31.40
2019-06-10T08:51:23.602Z,31.50
2019-06-10T08:54:06.768Z,31.50
2019-06-10T08:56:53.470Z,31.40
2019-06-10T08:59:39.880Z,31.40
2019-06-10T09:05:24.253Z,31.30
2019-06-10T09:14:12.649Z,31.10
2019-06-10T09:16:54.538Z,31.10
2019-06-10T09:19:35.845Z,31.10
2019-06-10T09:28:12.814Z,31.00
2019-06-10T09:30:59.076Z,31.00
2019-06-10T09:33:44.533Z,31.00
2019-06-10T09:36:23.561Z,31.00
2019-06-10T09:39:05.861Z,30.90
2019-06-10T09:41:56.858Z,30.90
2019-06-10T09:44:34.136Z,30.80
2019-06-10T09:47:15.455Z,30.80
2019-06-10T09:49:56.468Z,30.80
2019-06-10T09:52:45.680Z,30.90
2019-06-10T09:55:23.300Z,30.80
2019-06-10T09:58:07.125Z,30.80
2019-06-10T10:00:57.998Z,30.80
2019-06-10T10:03:38.947Z,30.90
2019-06-10T10:06:23.566Z,30.90
2019-06-10T10:09:06.450Z,30.80
2019-06-10T10:11:50.445Z,30.80
2019-06-10T10:14:35.142Z,30.70
2019-06-10T10:17:19.429Z,30.70
2019-06-10T10:20:03.281Z,30.70
2019-06-10T10:22:45.404Z,30.70
2019-06-10T10:40:32.788Z,30.60
2019-06-10T10:43:27.560Z,30.60
2019-06-10T10:46:06.989Z,30.60
2019-06-10T10:51:56.662Z,30.50
2019-06-10T10:54:38.305Z,30.50
2019-06-10T11:03:33.685Z,30.40
2019-06-10T11:06:32.340Z,30.40
2019-06-10T11:09:15.102Z,30.40
2019-06-10T11:11:58.878Z,30.40
2019-06-10T11:17:47.174Z,30.50
2019-06-10T11:20:41.709Z,30.40
2019-06-10T11:23:33.394Z,30.20
2019-06-10T11:26:14.597Z,30.20
2019-06-10T11:28:57.941Z,30.10
2019-06-10T11:31:48.432Z,30.00
2019-06-10T11:34:29.655Z,30.00
2019-06-10T11:37:22.988Z,30.00
2019-06-10T11:40:02.843Z,30.00
2019-06-10T11:42:48.270Z,29.90
2019-06-10T11:45:48.020Z,29.90
2019-06-10T11:48:29.508Z,29.90
2019-06-10T11:51:09.571Z,29.80
2019-06-10T11:53:57.306Z,29.80
2019-06-10T11:59:43.263Z,29.90
2019-06-10T12:05:26.834Z,29.90
2019-06-10T12:08:07.752Z,29.90
2019-06-10T12:11:04.726Z,29.90
2019-06-10T12:13:47.051Z,29.90
2019-06-10T12:19:14.667Z,30.00
2019-06-10T12:25:26.749Z,30.00
2019-06-10T12:27:55.837Z,30.00
2019-06-10T12:30:37.149Z,30.00
2019-06-10T12:33:25.187Z,29.90
2019-06-10T12:36:07.460Z,29.90
2019-06-10T12:42:11.774Z,29.90
2019-06-10T12:44:54.488Z,29.80
2019-06-10T12:50:36.567Z,29.70
2019-06-10T12:53:27.556Z,29.70
2019-06-10T12:56:12.192Z,29.70
2019-06-10T12:58:57.740Z,29.70
2019-06-10T13:01:44.701Z,29.70
2019-06-10T13:04:30.482Z,29.70
2019-06-10T13:07:12.669Z,29.80
2019-06-10T13:15:59.972Z,29.70
2019-06-10T13:18:39.767Z,29.70
2019-06-10T13:24:24.204Z,29.70
2019-06-10T13:27:08.319Z,29.70
2019-06-10T13:30:17.148Z,29.60
2019-06-10T13:33:07.276Z,30.00
2019-06-10T13:35:53.547Z,29.90
2019-06-10T13:38:44.002Z,29.90
2019-06-10T13:41:29.967Z,29.80
2019-06-10T13:44:16.554Z,29.80
2019-06-10T13:47:07.075Z,29.70
2019-06-10T13:49:46.465Z,29.70
2019-06-10T13:52:43.113Z,29.60
2019-06-10T13:58:35.314Z,29.50
2019-06-10T14:01:21.821Z,29.60
2019-06-10T14:04:20.460Z,29.50
2019-06-10T14:06:57.198Z,29.50
2019-06-10T14:09:41.684Z,29.50
2019-06-10T14:12:47.694Z,29.50
2019-06-10T14:15:43.656Z,29.50
2019-06-10T14:18:32.725Z,29.50
2019-06-10T14:21:18.471Z,29.50
2019-06-10T14:23:57.537Z,29.60
2019-06-10T14:26:48.962Z,29.50
2019-06-10T14:29:31.480Z,29.50
2019-06-10T14:32:15.805Z,29.50
2019-06-10T14:34:57.079Z,29.50
2019-06-10T14:37:39.564Z,29.50
2019-06-10T14:40:25.167Z,29.50
2019-06-10T14:43:13.476Z,29.50
2019-06-10T14:45:58.269Z,29.50
2019-06-10T14:51:46.322Z,29.30
2019-06-10T14:54:25.829Z,29.30
2019-06-10T14:57:15.138Z,29.20
2019-06-10T14:59:59.383Z,29.10
2019-06-10T15:02:42.808Z,29.10
2019-06-10T15:05:23.413Z,29.10
2019-06-10T15:08:07.704Z,29.00
2019-06-10T15:10:55.592Z,29.00
2019-06-10T15:13:43.262Z,29.00
2019-06-10T15:19:38.467Z,29.20
2019-06-10T15:22:23.396Z,29.10
2019-06-10T15:25:05.511Z,29.10
2019-06-10T15:27:48.284Z,29.10
2019-06-10T15:30:31.254Z,29.00
2019-06-10T15:33:14.909Z,29.10
2019-06-10T15:36:02.139Z,29.10
2019-06-10T15:41:48.159Z,29.10
2019-06-10T15:44:48.711Z,29.00
2019-06-10T15:47:17.784Z,29.00
2019-06-10T15:56:23.870Z,29.00
2019-06-10T15:59:03.704Z,29.00
2019-06-10T16:01:55.623Z,29.00
2019-06-10T16:04:52.988Z,28.90
2019-06-10T16:07:32.539Z,29.00
2019-06-10T16:10:17.795Z,28.90
2019-06-10T16:13:03.562Z,28.90
2019-06-10T16:15:49.731Z,28.80
2019-06-10T16:18:36.857Z,28.70
2019-06-10T16:21:23.825Z,28.60
2019-06-10T16:24:02.944Z,28.60
2019-06-10T16:26:46.991Z,28.40
2019-06-10T16:29:29.132Z,28.30
2019-06-10T16:32:16.333Z,28.30
2019-06-10T16:35:03.867Z,28.30
2019-06-10T16:43:44.380Z,28.20
2019-06-10T16:46:22.866Z,28.20
2019-06-10T16:52:12.791Z,28.40
2019-06-10T16:54:56.611Z,28.30
2019-06-10T16:57:40.133Z,28.20
2019-06-10T17:00:26.063Z,28.20
2019-06-10T17:03:12.708Z,28.20
2019-06-10T17:05:54.112Z,28.20
2019-06-10T17:08:35.909Z,28.20
2019-06-10T17:11:16.303Z,28.20
2019-06-10T17:13:58.053Z,28.10
2019-06-10T17:16:40.804Z,28.10
2019-06-10T17:19:27.357Z,28.10
2019-06-10T17:22:06.882Z,28.10
2019-06-10T17:24:47.112Z,28.00
2019-06-10T17:27:26.710Z,28.00
2019-06-10T17:30:08.113Z,28.10
2019-06-10T17:32:53.301Z,28.10
2019-06-10T17:35:36.836Z,28.10
2019-06-10T17:38:20.477Z,28.10
2019-06-10T17:41:04.496Z,28.10
2019-06-10T17:43:48.766Z,28.10
2019-06-10T17:46:35.308Z,28.10
2019-06-10T17:49:15.326Z,28.00
2019-06-10T17:52:03.721Z,28.10
2019-06-10T17:54:46.317Z,28.00
2019-06-10T17:57:34.326Z,28.00
2019-06-10T18:00:14.920Z,28.00
2019-06-10T18:05:57.970Z,27.90
2019-06-10T18:08:40.808Z,27.90
2019-06-10T18:11:25.112Z,27.90
2019-06-10T18:14:05.496Z,27.90
2019-06-10T18:16:47.056Z,27.90
2019-06-10T18:19:26.387Z,27.90
2019-06-10T18:22:06.952Z,27.80
2019-06-10T18:27:52.209Z,27.70
2019-06-10T18:30:35.832Z,27.70
2019-06-10T18:33:13.860Z,27.70
2019-06-10T18:35:59.928Z,27.70
2019-06-10T18:38:43.296Z,27.50
2019-06-10T18:41:28.845Z,27.60
2019-06-10T18:44:21.825Z,27.60
2019-06-10T18:46:57.115Z,27.60
2019-06-10T18:49:37.554Z,27.70
2019-06-10T18:52:19.190Z,27.70
2019-06-10T18:55:03.319Z,27.60
2019-06-10T18:57:48.247Z,27.60
2019-06-10T19:00:49.146Z,27.60
2019-06-10T19:03:16.891Z,27.50
2019-06-10T19:06:00.421Z,28.00
2019-06-10T19:08:44.910Z,27.90
2019-06-10T19:11:25.700Z,27.70
2019-06-10T19:14:08.642Z,27.70
2019-06-10T19:17:23.078Z,27.60
2019-06-10T19:20:12.964Z,27.60
2019-06-10T19:22:54.331Z,27.50
2019-06-10T19:25:38.512Z,27.40
2019-06-10T19:28:23.645Z,27.40
2019-06-10T19:31:15.064Z,27.40
2019-06-10T19:34:03.425Z,27.40
2019-06-10T19:36:46.414Z,27.50
2019-06-10T19:39:29.518Z,27.40
2019-06-10T19:42:10.150Z,27.40
2019-06-10T19:44:53.271Z,27.40
2019-06-10T19:47:36.290Z,27.80
2019-06-10T19:50:20.252Z,27.70
2019-06-10T19:53:03.820Z,27.60
2019-06-10T19:55:46.229Z,27.50
2019-06-10T19:58:28.308Z,27.50
2019-06-10T20:01:10.850Z,27.50
2019-06-10T20:03:52.061Z,27.50
2019-06-10T20:06:37.928Z,27.50
2019-06-10T20:09:17.712Z,27.40
2019-06-10T20:11:57.464Z,27.70
2019-06-10T20:14:41.158Z,27.60
2019-06-10T20:17:23.072Z,27.50
2019-06-10T20:20:02.669Z,27.50
2019-06-10T20:22:44.016Z,27.40
2019-06-10T20:25:22.696Z,27.40
2019-06-10T20:28:04.327Z,27.30
2019-06-10T20:30:49.078Z,27.30
2019-06-10T20:33:38.493Z,27.30
2019-06-10T20:36:23.321Z,27.30
2019-06-10T20:38:59.072Z,27.30
2019-06-10T20:41:46.829Z,27.30
2019-06-10T20:44:23.991Z,27.30
2019-06-10T20:47:07.140Z,27.20
2019-06-10T20:49:55.783Z,27.30
2019-06-10T20:52:37.904Z,27.20
2019-06-10T20:55:17.040Z,27.70
2019-06-10T20:58:03.522Z,27.50
2019-06-10T21:00:49.939Z,27.40
2019-06-10T21:03:29.225Z,27.40
2019-06-10T21:06:12.881Z,27.30
2019-06-10T21:08:51.614Z,27.30
2019-06-10T21:11:32.120Z,27.30
2019-06-10T21:14:12.280Z,27.30
2019-06-10T21:16:53.488Z,27.30
2019-06-10T21:19:34.040Z,27.60
2019-06-10T21:22:17.658Z,27.50
2019-06-10T21:25:02.495Z,27.40
2019-06-10T21:27:45.236Z,27.40
2019-06-10T21:30:37.574Z,27.30
2019-06-10T21:33:14.470Z,27.30
2019-06-10T21:35:56.514Z,27.30
2019-06-10T21:38:44.849Z,27.30
2019-06-10T21:41:30.245Z,27.20
2019-06-10T21:44:14.185Z,27.20
2019-06-10T21:46:57.164Z,27.20
2019-06-10T21:49:39.005Z,27.20
2019-06-10T21:52:21.119Z,27.20
2019-06-10T21:55:03.052Z,27.10
2019-06-10T21:57:44.551Z,27.20
2019-06-10T22:00:30.025Z,27.20
2019-06-10T22:03:12.672Z,27.20
2019-06-10T22:05:51.667Z,27.20
2019-06-10T22:08:33.434Z,27.20
2019-06-10T22:11:13.861Z,27.30
2019-06-10T22:13:56.543Z,27.30
2019-06-10T22:16:36.272Z,27.30
2019-06-10T22:19:14.215Z,27.30
2019-06-10T22:22:02.854Z,27.30
2019-06-10T22:24:44.698Z,27.30
2019-06-10T22:27:25.733Z,27.70
2019-06-10T22:30:11.293Z,27.60
2019-06-10T22:32:57.949Z,27.50
2019-06-10T22:35:42.559Z,27.50
2019-06-10T22:38:24.906Z,27.50
2019-06-10T22:41:07.271Z,27.50
2019-06-10T22:46:52.541Z,27.50
2019-06-10T22:49:47.811Z,27.40
2019-06-10T22:52:27.960Z,27.40
2019-06-10T22:55:08.540Z,27.40
2019-06-10T22:57:48.838Z,27.40
2019-06-10T23:00:35.532Z,27.40
2019-06-10T23:03:16.268Z,27.40
2019-06-10T23:05:56.628Z,27.40
2019-06-10T23:08:37.984Z,27.40
2019-06-10T23:11:24.143Z,27.40
2019-06-10T23:14:44.199Z,27.40
2019-06-10T23:17:27.617Z,27.40
2019-06-10T23:20:09.374Z,27.40
2019-06-10T23:22:49.282Z,27.40
2019-06-10T23:25:43.576Z,27.30
2019-06-10T23:28:38.131Z,27.40
2019-06-10T23:31:18.721Z,27.30
2019-06-10T23:33:58.878Z,27.40
2019-06-10T23:36:39.449Z,27.40
2019-06-10T23:39:19.084Z,27.30
2019-06-10T23:42:04.270Z,27.30
2019-06-10T23:44:47.276Z,27.40
2019-06-10T23:47:32.620Z,27.30
2019-06-10T23:50:12.990Z,27.30
2019-06-10T23:52:58.229Z,27.30
2019-06-10T23:55:38.846Z,27.20
2019-06-10T23:58:48.995Z,27.20
